createdAt,value
2022-08-31T00:01:29.776Z,2.20
2022-08-31T00:04:03.103Z,1.90
2022-08-31T00:06:32.121Z,1.87
2022-08-31T00:09:01.516Z,1.90
2022-08-31T00:11:30.985Z,2.00
2022-08-31T00:14:01.034Z,1.80
2022-08-31T00:16:31.429Z,1.80
2022-08-31T00:19:00.072Z,1.73
2022-08-31T00:21:28.572Z,1.67
2022-08-31T00:23:57.049Z,1.93
2022-08-31T00:26:26.590Z,1.73
2022-08-31T00:28:54.624Z,1.83
2022-08-31T00:31:22.604Z,2.30
2022-08-31T00:33:52.605Z,1.97
2022-08-31T00:36:22.499Z,1.90
2022-08-31T00:38:51.852Z,1.73
2022-08-31T00:41:22.132Z,1.87
2022-08-31T00:43:53.874Z,1.63
2022-08-31T00:46:25.994Z,1.63
2022-08-31T00:49:00.696Z,1.63
2022-08-31T00:51:30.374Z,1.63
2022-08-31T00:53:58.946Z,1.90
2022-08-31T00:56:27.821Z,1.57
2022-08-31T00:58:57.309Z,1.90
2022-08-31T01:01:25.313Z,1.40
2022-08-31T01:03:53.447Z,1.70
2022-08-31T01:06:22.962Z,1.40
2022-08-31T01:08:52.177Z,1.50
2022-08-31T01:11:22.356Z,1.40
2022-08-31T01:13:50.742Z,1.70
2022-08-31T01:16:24.116Z,1.60
2022-08-31T01:18:54.093Z,1.60
2022-08-31T01:21:27.415Z,1.70
2022-08-31T01:24:00.248Z,1.60
2022-08-31T01:26:30.699Z,1.43
2022-08-31T01:29:04.413Z,1.30
2022-08-31T01:31:35.372Z,1.70
2022-08-31T01:34:05.744Z,1.40
2022-08-31T01:36:36.876Z,1.50
2022-08-31T01:39:07.538Z,1.50
2022-08-31T01:41:35.983Z,1.70
2022-08-31T01:44:04.376Z,1.27
2022-08-31T01:46:32.365Z,1.53
2022-08-31T01:49:01.646Z,1.20
2022-08-31T01:51:29.679Z,1.30
2022-08-31T01:53:57.727Z,1.57
2022-08-31T01:56:32.942Z,1.33
2022-08-31T01:59:08.096Z,1.70
2022-08-31T02:01:59.753Z,1.37
2022-08-31T02:04:29.941Z,1.33
2022-08-31T02:07:00.087Z,1.80
2022-08-31T02:09:29.699Z,1.80
2022-08-31T02:11:59.068Z,1.70
2022-08-31T02:14:27.011Z,1.57
2022-08-31T02:16:55.539Z,1.40
2022-08-31T02:19:23.578Z,1.30
2022-08-31T02:21:51.543Z,1.20
2022-08-31T02:24:19.501Z,1.50
2022-08-31T02:26:50.495Z,1.47
2022-08-31T02:29:23.286Z,1.40
2022-08-31T02:31:51.930Z,1.50
2022-08-31T02:34:20.047Z,1.37
2022-08-31T02:36:48.164Z,1.77
2022-08-31T02:39:16.673Z,1.70
2022-08-31T02:41:45.640Z,1.20
2022-08-31T02:44:13.854Z,1.60
2022-08-31T02:46:43.440Z,1.50
2022-08-31T02:49:33.103Z,1.63
2022-08-31T02:52:01.640Z,1.40
2022-08-31T02:54:29.747Z,1.67
2022-08-31T02:56:57.637Z,1.50
2022-08-31T02:59:27.635Z,1.50
2022-08-31T03:01:57.211Z,1.77
2022-08-31T03:04:25.177Z,1.67
2022-08-31T03:06:53.086Z,1.70
2022-08-31T03:09:21.008Z,1.53
2022-08-31T03:11:49.095Z,1.60
2022-08-31T03:14:17.051Z,1.67
2022-08-31T03:16:46.918Z,1.70
2022-08-31T03:19:23.029Z,1.40
2022-08-31T03:21:55.821Z,1.67
2022-08-31T03:24:27.406Z,1.70
2022-08-31T03:26:56.333Z,1.67
2022-08-31T03:29:24.280Z,1.50
2022-08-31T03:32:14.660Z,1.70
2022-08-31T03:34:46.941Z,1.67
2022-08-31T03:37:15.125Z,1.80
2022-08-31T03:39:44.937Z,1.60
2022-08-31T03:42:13.199Z,1.40
2022-08-31T03:44:41.326Z,1.80
2022-08-31T03:47:16.826Z,1.57
2022-08-31T03:49:46.573Z,1.60
2022-08-31T03:52:24.273Z,1.40
2022-08-31T03:55:15.065Z,1.50
2022-08-31T03:57:43.455Z,1.47
2022-08-31T04:00:12.463Z,1.40
2022-08-31T04:02:43.587Z,1.60
2022-08-31T04:05:34.592Z,1.47
2022-08-31T04:08:23.078Z,1.47
2022-08-31T04:11:44.813Z,1.90
2022-08-31T04:14:27.082Z,1.60
2022-08-31T04:17:20.872Z,1.70
2022-08-31T04:19:55.151Z,1.70
2022-08-31T04:22:43.012Z,1.70
2022-08-31T04:25:32.632Z,1.80
2022-08-31T04:28:02.123Z,1.40
2022-08-31T04:30:32.009Z,1.80
2022-08-31T04:33:02.146Z,1.90
2022-08-31T04:35:30.189Z,1.63
2022-08-31T04:37:59.513Z,1.67
2022-08-31T04:40:28.708Z,1.60
2022-08-31T04:42:59.702Z,1.43
2022-08-31T04:45:28.843Z,1.70
2022-08-31T04:47:56.902Z,1.60
2022-08-31T04:50:24.892Z,1.60
2022-08-31T04:53:08.134Z,1.70
2022-08-31T04:55:41.155Z,1.83
2022-08-31T04:58:10.842Z,1.60
2022-08-31T05:00:38.842Z,1.50
2022-08-31T05:03:45.002Z,1.40
2022-08-31T05:06:15.516Z,1.77
2022-08-31T05:08:45.596Z,1.80
2022-08-31T05:11:20.726Z,1.77
2022-08-31T05:13:52.665Z,1.80
2022-08-31T05:16:21.740Z,2.00
2022-08-31T05:18:51.173Z,1.90
2022-08-31T05:21:25.577Z,2.10
2022-08-31T05:23:55.968Z,2.07
2022-08-31T05:26:27.429Z,1.70
2022-08-31T05:28:56.232Z,1.80
2022-08-31T05:31:28.133Z,2.13
2022-08-31T05:33:57.885Z,2.03
2022-08-31T05:36:36.298Z,2.20
2022-08-31T05:39:09.393Z,1.60
2022-08-31T05:41:37.672Z,2.10
2022-08-31T05:44:06.578Z,1.90
2022-08-31T05:46:36.911Z,1.83
2022-08-31T05:49:07.189Z,1.77
2022-08-31T05:51:38.443Z,1.77
2022-08-31T05:54:10.755Z,1.97
2022-08-31T05:56:42.968Z,2.40
2022-08-31T05:59:13.010Z,1.90
2022-08-31T06:01:42.329Z,2.13
2022-08-31T06:04:13.064Z,2.10
2022-08-31T06:06:42.423Z,2.30
2022-08-31T06:09:14.741Z,2.03
2022-08-31T06:11:44.269Z,2.10
2022-08-31T06:14:16.193Z,2.13
2022-08-31T06:16:46.633Z,2.27
2022-08-31T06:19:17.006Z,2.20
2022-08-31T06:21:50.992Z,2.37
2022-08-31T06:24:28.215Z,2.50
2022-08-31T06:26:59.088Z,2.33
2022-08-31T06:29:31.452Z,2.30
2022-08-31T06:32:07.826Z,2.27
2022-08-31T06:34:37.401Z,2.17
2022-08-31T06:37:14.488Z,2.20
2022-08-31T06:40:12.225Z,2.10
2022-08-31T06:43:18.535Z,2.03
2022-08-31T06:45:58.182Z,2.03
2022-08-31T06:48:45.641Z,1.87
2022-08-31T06:51:14.586Z,1.93
2022-08-31T06:53:43.501Z,2.10
2022-08-31T06:56:42.099Z,2.27
2022-08-31T06:59:48.700Z,1.90
2022-08-31T07:02:42.574Z,1.70
2022-08-31T07:05:15.190Z,2.20
2022-08-31T07:07:48.129Z,1.90
2022-08-31T07:10:17.492Z,2.20
2022-08-31T07:12:46.810Z,2.20
2022-08-31T07:15:14.801Z,2.27
2022-08-31T07:17:42.865Z,1.90
2022-08-31T07:20:12.644Z,2.17
2022-08-31T07:22:40.752Z,2.10
2022-08-31T07:25:27.362Z,1.90
2022-08-31T07:27:56.649Z,2.40
2022-08-31T07:30:25.793Z,2.53
2022-08-31T07:32:56.988Z,2.30
2022-08-31T07:35:26.300Z,2.47
2022-08-31T07:38:35.406Z,2.23
2022-08-31T07:41:27.824Z,2.43
2022-08-31T07:43:59.488Z,2.10
2022-08-31T07:46:30.090Z,2.30
2022-08-31T07:48:59.107Z,2.00
2022-08-31T07:51:53.264Z,2.20
2022-08-31T07:54:41.374Z,2.40
2022-08-31T07:57:25.865Z,2.00
2022-08-31T08:00:04.359Z,2.20
2022-08-31T08:02:46.325Z,2.20
2022-08-31T08:05:26.872Z,2.63
2022-08-31T08:08:15.630Z,2.50
2022-08-31T08:10:57.810Z,2.27
2022-08-31T08:13:46.605Z,2.37
2022-08-31T08:16:24.683Z,2.17
2022-08-31T08:19:21.048Z,2.17
2022-08-31T08:21:51.051Z,2.30
2022-08-31T08:24:25.298Z,2.03
2022-08-31T08:27:11.703Z,2.10
2022-08-31T08:30:08.287Z,2.50
2022-08-31T08:32:37.928Z,2.40
2022-08-31T08:35:07.184Z,2.47
2022-08-31T08:37:56.767Z,2.20
2022-08-31T08:59:28.962Z,2.30
2022-08-31T09:02:14.030Z,2.77
2022-08-31T09:05:21.836Z,2.53
2022-08-31T09:08:11.705Z,2.33
2022-08-31T09:10:47.930Z,2.67
2022-08-31T09:13:26.451Z,2.27
2022-08-31T09:16:09.380Z,2.57
2022-08-31T09:18:49.283Z,2.70
2022-08-31T09:21:25.951Z,2.77
2022-08-31T09:24:03.220Z,2.53
2022-08-31T09:27:18.141Z,2.77
2022-08-31T09:29:49.153Z,3.20
2022-08-31T09:32:26.461Z,2.90
2022-08-31T09:35:00.650Z,3.00
2022-08-31T09:37:35.538Z,2.90
2022-08-31T09:40:23.859Z,2.93
2022-08-31T09:43:05.140Z,3.57
2022-08-31T09:45:42.641Z,2.97
2022-08-31T09:48:13.252Z,2.90
2022-08-31T09:50:46.261Z,3.00
2022-08-31T09:53:38.913Z,3.27
2022-08-31T09:56:16.350Z,2.80
2022-08-31T09:58:51.134Z,3.10
2022-08-31T10:01:29.457Z,3.50
2022-08-31T10:04:21.787Z,2.97
2022-08-31T10:07:06.281Z,2.47
2022-08-31T10:09:41.677Z,3.37
2022-08-31T10:12:15.328Z,2.60
2022-08-31T10:14:51.324Z,2.60
2022-08-31T10:17:31.924Z,3.20
2022-08-31T10:20:10.675Z,2.73
2022-08-31T10:22:43.182Z,3.30
2022-08-31T10:25:22.410Z,2.97
2022-08-31T10:28:02.150Z,3.60
2022-08-31T10:30:38.505Z,3.20
2022-08-31T10:33:17.225Z,3.40
2022-08-31T10:35:55.077Z,3.60
2022-08-31T10:38:34.804Z,3.47
2022-08-31T10:41:13.829Z,3.80
2022-08-31T10:43:54.102Z,3.47
2022-08-31T10:46:29.428Z,3.60
2022-08-31T10:49:00.409Z,3.33
2022-08-31T10:51:42.363Z,3.30
2022-08-31T10:54:30.284Z,3.63
2022-08-31T10:57:19.558Z,3.00
2022-08-31T11:00:03.510Z,3.40
2022-08-31T11:02:46.558Z,3.90
2022-08-31T11:05:30.618Z,3.60
2022-08-31T11:08:13.392Z,3.10
2022-08-31T11:10:50.437Z,3.43
2022-08-31T11:13:49.740Z,3.50
2022-08-31T11:16:44.369Z,3.80
2022-08-31T11:19:32.832Z,3.80
2022-08-31T11:22:35.114Z,3.63
2022-08-31T11:25:25.532Z,3.67
2022-08-31T11:28:03.327Z,3.80
2022-08-31T11:30:41.741Z,4.40
2022-08-31T11:33:20.098Z,3.53
2022-08-31T11:36:07.323Z,3.80
2022-08-31T11:38:48.374Z,3.27
2022-08-31T11:41:39.825Z,3.13
2022-08-31T11:44:31.137Z,3.40
2022-08-31T11:47:10.536Z,2.97
2022-08-31T11:49:43.952Z,3.40
2022-08-31T11:52:32.363Z,3.33
2022-08-31T11:55:09.424Z,3.30
2022-08-31T11:58:27.429Z,3.40
2022-08-31T12:01:10.906Z,3.07
2022-08-31T12:03:53.613Z,3.67
2022-08-31T12:07:07.533Z,3.30
2022-08-31T12:10:11.639Z,3.00
2022-08-31T12:13:09.537Z,3.27
2022-08-31T12:16:15.453Z,3.60
2022-08-31T12:19:00.512Z,3.23
2022-08-31T12:21:59.464Z,3.40
2022-08-31T12:24:38.368Z,3.50
2022-08-31T12:27:41.691Z,3.80
2022-08-31T12:30:26.749Z,3.40
2022-08-31T12:33:07.522Z,3.23
2022-08-31T12:35:41.678Z,3.43
2022-08-31T12:38:20.790Z,3.47
2022-08-31T12:40:55.357Z,3.40
2022-08-31T12:43:30.657Z,4.00
2022-08-31T12:46:18.336Z,4.10
2022-08-31T12:49:06.721Z,3.97
2022-08-31T12:51:48.955Z,3.90
2022-08-31T12:55:04.499Z,3.87
2022-08-31T12:57:50.147Z,3.77
2022-08-31T13:00:26.597Z,3.67
2022-08-31T13:02:59.159Z,3.90
2022-08-31T13:05:30.611Z,4.07
2022-08-31T13:08:01.908Z,4.20
2022-08-31T13:10:34.009Z,3.73
2022-08-31T13:13:07.630Z,4.37
2022-08-31T13:15:39.845Z,3.30
2022-08-31T13:18:13.061Z,3.37
2022-08-31T13:20:47.956Z,3.47
2022-08-31T13:23:30.538Z,3.67
2022-08-31T13:26:09.856Z,3.93
2022-08-31T13:28:39.344Z,3.93
2022-08-31T13:31:12.529Z,3.77
2022-08-31T13:33:44.963Z,3.53
2022-08-31T13:36:53.770Z,3.40
2022-08-31T13:39:29.482Z,2.90
2022-08-31T13:42:10.194Z,3.30
2022-08-31T13:47:55.330Z,3.17
2022-08-31T13:50:30.786Z,3.50
2022-08-31T13:53:25.886Z,3.60
2022-08-31T13:55:51.090Z,3.10
2022-08-31T13:58:27.981Z,3.17
2022-08-31T14:01:19.140Z,2.60
2022-08-31T14:03:57.110Z,3.00
2022-08-31T14:06:27.312Z,3.40
2022-08-31T14:09:03.169Z,3.27
2022-08-31T14:11:35.590Z,2.70
2022-08-31T14:14:07.366Z,2.60
2022-08-31T14:16:38.901Z,3.00
2022-08-31T14:19:12.032Z,3.07
2022-08-31T14:21:42.255Z,2.83
2022-08-31T14:24:12.452Z,3.00
2022-08-31T14:26:43.203Z,3.00
2022-08-31T14:29:13.471Z,3.10
2022-08-31T14:31:45.476Z,2.83
2022-08-31T14:34:32.084Z,3.20
2022-08-31T14:37:06.428Z,3.13
2022-08-31T14:39:36.771Z,2.90
2022-08-31T14:42:09.351Z,3.07
2022-08-31T14:44:40.688Z,2.57
2022-08-31T14:47:09.566Z,2.90
2022-08-31T14:49:37.818Z,2.80
2022-08-31T14:52:07.096Z,2.50
2022-08-31T14:54:37.047Z,2.83
2022-08-31T14:57:11.603Z,2.50
2022-08-31T14:59:43.375Z,2.90
2022-08-31T15:02:19.920Z,2.70
2022-08-31T15:04:52.522Z,3.13
2022-08-31T15:07:23.488Z,2.50
2022-08-31T15:09:51.463Z,2.80
2022-08-31T15:12:20.710Z,2.60
2022-08-31T15:14:49.765Z,2.70
2022-08-31T15:17:20.802Z,2.80
2022-08-31T15:19:54.605Z,2.63
2022-08-31T15:22:26.122Z,2.70
2022-08-31T15:24:55.071Z,2.80
2022-08-31T15:27:28.621Z,2.40
2022-08-31T15:30:02.544Z,2.90
2022-08-31T15:32:31.533Z,2.80
2022-08-31T15:35:00.154Z,2.57
2022-08-31T15:37:31.805Z,2.20
2022-08-31T15:40:02.577Z,2.20
2022-08-31T15:42:39.975Z,2.50
2022-08-31T15:45:09.692Z,2.37
2022-08-31T15:47:57.042Z,2.70
2022-08-31T15:50:31.556Z,2.30
2022-08-31T15:53:08.716Z,2.33
2022-08-31T15:55:40.430Z,2.20
2022-08-31T15:58:10.876Z,2.30
2022-08-31T16:00:41.966Z,2.60
2022-08-31T16:03:10.509Z,2.50
2022-08-31T16:05:38.939Z,2.23
2022-08-31T16:08:11.119Z,2.27
2022-08-31T16:10:44.604Z,2.40
2022-08-31T16:13:15.962Z,2.37
2022-08-31T16:15:51.008Z,2.30
2022-08-31T16:18:20.184Z,2.23
2022-08-31T16:20:49.993Z,1.93
2022-08-31T16:23:18.776Z,2.00
2022-08-31T16:25:49.090Z,2.20
2022-08-31T16:28:20.191Z,1.90
2022-08-31T16:30:48.813Z,2.00
2022-08-31T16:33:19.715Z,1.80
2022-08-31T16:35:47.850Z,2.07
2022-08-31T16:38:16.128Z,2.27
2022-08-31T16:40:44.461Z,2.27
2022-08-31T16:43:12.708Z,1.90
2022-08-31T16:45:42.867Z,1.73
2022-08-31T16:48:29.871Z,2.20
2022-08-31T16:50:58.227Z,1.83
2022-08-31T16:53:26.161Z,1.90
2022-08-31T16:55:54.267Z,1.90
2022-08-31T16:58:47.701Z,2.30
2022-08-31T17:01:16.430Z,1.83
2022-08-31T17:03:48.824Z,1.73
2022-08-31T17:06:18.562Z,1.80
2022-08-31T17:08:47.095Z,1.97
2022-08-31T17:11:21.149Z,2.30
2022-08-31T17:13:49.979Z,1.67
2022-08-31T17:16:21.540Z,1.90
2022-08-31T17:18:51.045Z,2.07
2022-08-31T17:21:21.577Z,1.80
2022-08-31T17:23:52.463Z,1.70
2022-08-31T17:26:23.074Z,1.77
2022-08-31T17:29:01.723Z,1.63
2022-08-31T17:31:33.458Z,1.63
2022-08-31T17:34:01.754Z,2.00
2022-08-31T17:36:35.425Z,2.20
2022-08-31T17:39:06.223Z,1.90
2022-08-31T17:41:34.661Z,1.60
2022-08-31T17:44:02.974Z,1.43
2022-08-31T17:46:33.034Z,1.60
2022-08-31T17:49:01.270Z,1.50
2022-08-31T17:51:33.122Z,1.80
2022-08-31T17:54:03.004Z,1.60
2022-08-31T17:56:34.799Z,1.57
2022-08-31T17:59:02.877Z,1.37
2022-08-31T18:01:32.450Z,1.37
2022-08-31T18:04:02.466Z,1.37
2022-08-31T18:06:31.421Z,1.20
2022-08-31T18:09:00.372Z,1.40
2022-08-31T18:11:29.179Z,1.43
2022-08-31T18:13:57.965Z,1.50
2022-08-31T18:16:26.243Z,1.50
2022-08-31T18:18:55.764Z,1.50
2022-08-31T18:21:25.226Z,1.40
2022-08-31T18:23:54.709Z,1.50
2022-08-31T18:26:26.478Z,1.50
2022-08-31T18:28:56.010Z,1.70
2022-08-31T18:31:30.253Z,1.47
2022-08-31T18:34:00.581Z,1.43
2022-08-31T18:36:29.839Z,1.70
2022-08-31T18:39:01.210Z,1.57
2022-08-31T18:41:47.416Z,1.40
2022-08-31T18:44:34.144Z,1.50
2022-08-31T18:47:05.977Z,1.40
2022-08-31T18:49:39.358Z,1.33
2022-08-31T18:52:09.409Z,1.80
2022-08-31T18:54:37.337Z,1.47
2022-08-31T18:57:05.450Z,1.40
2022-08-31T18:59:33.492Z,1.77
2022-08-31T19:02:01.981Z,1.60
2022-08-31T19:04:30.877Z,1.67
2022-08-31T19:07:00.204Z,1.40
2022-08-31T19:09:28.525Z,1.50
2022-08-31T19:12:02.163Z,1.33
2022-08-31T19:14:33.725Z,1.50
2022-08-31T19:17:03.906Z,1.50
2022-08-31T19:19:33.119Z,1.47
2022-08-31T19:22:02.474Z,1.30
2022-08-31T19:24:30.603Z,1.47
2022-08-31T19:27:00.974Z,1.63
2022-08-31T19:29:31.420Z,1.40
2022-08-31T19:32:01.021Z,1.80
2022-08-31T19:34:31.058Z,1.20
2022-08-31T19:37:00.287Z,1.47
2022-08-31T19:39:36.980Z,1.50
2022-08-31T19:42:07.706Z,1.20
2022-08-31T19:47:25.548Z,1.33
2022-08-31T19:49:53.777Z,1.40
2022-08-31T19:52:24.253Z,1.13
2022-08-31T19:54:53.638Z,1.40
2022-08-31T19:57:22.548Z,1.40
2022-08-31T19:59:50.746Z,1.40
2022-08-31T20:02:18.967Z,1.60
2022-08-31T20:04:47.042Z,1.60
2022-08-31T20:07:15.006Z,1.20
2022-08-31T20:09:43.089Z,1.30
2022-08-31T20:12:12.484Z,1.50
2022-08-31T20:14:40.692Z,1.60
2022-08-31T20:17:10.009Z,1.43
2022-08-31T20:19:39.441Z,1.10
2022-08-31T20:22:08.216Z,1.20
2022-08-31T20:24:42.098Z,1.30
2022-08-31T20:27:18.693Z,1.43
2022-08-31T20:29:48.087Z,1.30
2022-08-31T20:32:16.126Z,1.40
2022-08-31T20:34:44.756Z,1.20
2022-08-31T20:37:12.761Z,1.30
2022-08-31T20:39:42.040Z,1.13
2022-08-31T20:42:10.162Z,1.30
2022-08-31T20:44:39.712Z,1.40
2022-08-31T20:47:27.522Z,1.30
2022-08-31T20:49:57.340Z,1.10
2022-08-31T20:52:27.597Z,0.93
2022-08-31T20:55:01.611Z,1.20
2022-08-31T20:57:32.103Z,1.30
2022-08-31T21:00:03.023Z,1.30
2022-08-31T21:02:31.732Z,1.27
2022-08-31T21:05:15.224Z,1.10
2022-08-31T21:07:48.218Z,1.30
2022-08-31T21:10:16.148Z,1.07
2022-08-31T21:12:49.036Z,1.50
2022-08-31T21:15:19.241Z,1.03
2022-08-31T21:17:49.221Z,0.90
2022-08-31T21:20:17.739Z,1.30
2022-08-31T21:22:45.675Z,0.90
2022-08-31T21:25:13.801Z,1.30
2022-08-31T21:27:42.297Z,1.00
2022-08-31T21:30:12.044Z,1.07
2022-08-31T21:32:41.341Z,1.20
2022-08-31T21:35:09.951Z,1.13
2022-08-31T21:37:38.002Z,1.30
2022-08-31T21:40:07.163Z,1.33
2022-08-31T21:42:40.160Z,1.30
2022-08-31T21:45:08.957Z,1.40
2022-08-31T21:47:36.927Z,1.20
2022-08-31T21:50:07.318Z,1.20
2022-08-31T21:52:35.506Z,1.27
2022-08-31T21:55:05.739Z,1.40
2022-08-31T21:57:33.837Z,1.37
2022-08-31T22:00:01.995Z,1.07
2022-08-31T22:02:30.017Z,1.23
2022-08-31T22:04:57.965Z,1.40
2022-08-31T22:07:27.376Z,1.40
2022-08-31T22:09:57.185Z,1.70
2022-08-31T22:12:26.204Z,1.60
2022-08-31T22:14:54.229Z,1.27
2022-08-31T22:17:36.964Z,1.40
2022-08-31T22:20:19.844Z,1.60
2022-08-31T22:22:49.357Z,1.40
2022-08-31T22:25:17.481Z,1.40
2022-08-31T22:27:46.825Z,1.57
2022-08-31T22:30:15.810Z,1.30
2022-08-31T22:32:47.909Z,1.50
2022-08-31T22:35:16.399Z,1.23
2022-08-31T22:37:44.856Z,1.47
2022-08-31T22:40:22.190Z,1.47
2022-08-31T22:42:51.223Z,1.20
2022-08-31T22:45:19.969Z,1.70
2022-08-31T22:47:50.228Z,1.50
2022-08-31T22:50:18.571Z,1.37
2022-08-31T22:52:46.756Z,1.37
2022-08-31T22:55:16.158Z,1.70
2022-08-31T22:57:44.466Z,1.40
2022-08-31T23:00:14.446Z,1.60
2022-08-31T23:02:45.271Z,1.50
2022-08-31T23:05:15.049Z,1.63
2022-08-31T23:07:43.986Z,1.50
2022-08-31T23:10:18.502Z,1.43
2022-08-31T23:12:51.736Z,1.77
2022-08-31T23:15:23.876Z,1.47
2022-08-31T23:17:53.510Z,1.50
2022-08-31T23:20:24.349Z,1.60
2022-08-31T23:22:55.017Z,1.33
2022-08-31T23:25:24.968Z,1.40
2022-08-31T23:27:54.404Z,1.33
2022-08-31T23:30:25.688Z,1.30
2022-08-31T23:32:53.838Z,1.83
2022-08-31T23:35:24.322Z,1.70
2022-08-31T23:37:54.307Z,1.30
2022-08-31T23:40:22.290Z,1.80
2022-08-31T23:42:50.529Z,1.80
2022-08-31T23:45:20.187Z,1.60
2022-08-31T23:47:51.445Z,1.43
2022-08-31T23:50:19.598Z,1.20
2022-08-31T23:52:48.671Z,1.40
2022-08-31T23:55:16.719Z,1.20
2022-08-31T23:57:45.511Z,1.33
